createdAt,value
2023-04-27T00:02:21.874Z,94.20
2023-04-27T00:05:24.819Z,94.02
2023-04-27T00:08:27.594Z,94.07
2023-04-27T00:11:30.240Z,94.34
2023-04-27T00:14:32.936Z,93.86
2023-04-27T00:17:36.062Z,93.61
2023-04-27T00:20:38.942Z,93.88
2023-04-27T00:23:41.791Z,94.66
2023-04-27T00:26:44.354Z,94.00
2023-04-27T00:29:48.430Z,93.40
2023-04-27T00:32:51.249Z,94.10
2023-04-27T00:35:53.954Z,94.91
2023-04-27T00:38:59.685Z,94.41
2023-04-27T00:42:02.353Z,94.64
2023-04-27T00:45:06.210Z,94.80
2023-04-27T00:48:10.425Z,94.50
2023-04-27T00:51:13.368Z,94.67
2023-04-27T00:54:18.178Z,95.16
2023-04-27T00:57:23.927Z,95.64
2023-04-27T01:00:26.624Z,96.08
2023-04-27T01:03:30.867Z,96.21
2023-04-27T01:06:33.819Z,96.04
2023-04-27T01:09:36.809Z,95.87
2023-04-27T01:12:39.456Z,96.39
2023-04-27T01:15:42.206Z,96.57
2023-04-27T01:18:47.879Z,96.39
2023-04-27T01:21:50.655Z,95.92
2023-04-27T01:24:53.877Z,96.67
2023-04-27T01:27:56.605Z,96.21
2023-04-27T01:31:02.383Z,97.57
2023-04-27T01:34:04.982Z,98.30
2023-04-27T01:37:07.653Z,98.84
2023-04-27T01:40:10.642Z,98.42
2023-04-27T01:43:13.452Z,99.10
2023-04-27T01:46:16.396Z,98.00
2023-04-27T01:49:22.276Z,99.01
2023-04-27T01:52:25.279Z,99.23
2023-04-27T01:55:28.433Z,99.70
2023-04-27T01:58:31.218Z,99.75
2023-04-27T02:01:34.693Z,99.48
2023-04-27T02:04:38.137Z,99.54
2023-04-27T02:07:41.101Z,98.85
2023-04-27T02:10:43.725Z,98.65
2023-04-27T02:13:46.808Z,99.12
2023-04-27T02:16:49.579Z,99.76
2023-04-27T02:19:52.429Z,99.25
2023-04-27T02:22:55.068Z,99.44
2023-04-27T02:25:57.745Z,99.12
2023-04-27T02:29:00.791Z,99.26
2023-04-27T02:32:03.924Z,99.12
2023-04-27T02:35:07.058Z,99.21
2023-04-27T02:38:10.552Z,98.94
2023-04-27T02:41:13.214Z,99.51
2023-04-27T02:44:16.188Z,99.50
2023-04-27T02:47:20.067Z,99.39
2023-04-27T02:50:22.688Z,100.00
2023-04-27T02:53:25.349Z,99.74
2023-04-27T02:56:28.072Z,99.68
2023-04-27T02:59:30.926Z,100.00
2023-04-27T03:02:33.881Z,99.70
2023-04-27T03:05:37.469Z,99.91
2023-04-27T03:08:51.039Z,99.31
2023-04-27T03:11:53.733Z,100.00
2023-04-27T03:14:56.644Z,100.00
2023-04-27T03:18:00.254Z,100.00
2023-04-27T03:21:11.113Z,100.00
2023-04-27T03:24:13.986Z,100.00
2023-04-27T03:27:19.562Z,100.00
2023-04-27T03:30:22.195Z,100.00
2023-04-27T03:33:27.192Z,100.00
2023-04-27T03:36:29.867Z,100.00
2023-04-27T03:39:32.510Z,100.00
2023-04-27T03:42:35.194Z,100.00
2023-04-27T03:45:38.189Z,100.00
2023-04-27T03:48:41.107Z,100.00
2023-04-27T03:51:44.199Z,100.00
2023-04-27T03:54:46.863Z,100.00
2023-04-27T03:57:49.661Z,100.00
2023-04-27T04:00:52.402Z,100.00
2023-04-27T04:03:55.244Z,100.00
2023-04-27T04:06:58.027Z,100.00
2023-04-27T04:10:00.938Z,100.00
2023-04-27T04:13:03.618Z,100.00
2023-04-27T04:16:08.072Z,100.00
2023-04-27T04:19:11.298Z,100.00
2023-04-27T04:22:14.216Z,100.00
2023-04-27T04:25:16.937Z,100.00
2023-04-27T04:28:19.564Z,100.00
2023-04-27T04:31:22.303Z,100.00
2023-04-27T04:34:25.088Z,100.00
2023-04-27T04:37:28.316Z,99.60
2023-04-27T04:40:31.252Z,100.00
2023-04-27T04:43:34.104Z,100.00
2023-04-27T04:46:37.558Z,100.00
2023-04-27T04:49:40.481Z,100.00
2023-04-27T04:52:43.342Z,100.00
2023-04-27T04:55:46.024Z,100.00
2023-04-27T04:58:51.718Z,100.00
2023-04-27T05:01:56.027Z,100.00
2023-04-27T05:05:00.224Z,100.00
2023-04-27T05:08:03.104Z,100.00
2023-04-27T05:11:05.906Z,100.00
2023-04-27T05:14:08.543Z,100.00
2023-04-27T05:17:11.244Z,100.00
2023-04-27T05:20:14.165Z,99.76
2023-04-27T05:23:17.292Z,97.29
2023-04-27T05:26:19.935Z,93.68
2023-04-27T05:29:23.032Z,89.42
2023-04-27T05:32:26.252Z,87.26
2023-04-27T05:35:32.099Z,85.15
2023-04-27T05:38:36.309Z,83.24
2023-04-27T05:41:40.597Z,81.68
2023-04-27T05:44:44.009Z,81.50
2023-04-27T05:47:46.877Z,79.33
2023-04-27T05:51:03.254Z,77.41
2023-04-27T05:54:05.948Z,75.75
2023-04-27T05:57:08.668Z,77.51
2023-04-27T06:00:12.895Z,77.73
2023-04-27T06:03:15.724Z,76.29
2023-04-27T06:06:18.648Z,73.83
2023-04-27T06:09:21.833Z,72.21
2023-04-27T06:12:25.268Z,70.64
2023-04-27T06:15:27.962Z,69.73
2023-04-27T06:18:31.836Z,68.84
2023-04-27T06:21:34.834Z,68.79
2023-04-27T06:24:38.928Z,69.16
2023-04-27T06:27:41.746Z,68.67
2023-04-27T06:30:44.502Z,68.07
2023-04-27T06:33:47.241Z,67.97
2023-04-27T06:36:49.906Z,67.82
2023-04-27T06:39:52.692Z,68.00
2023-04-27T06:42:55.436Z,66.68
2023-04-27T06:45:58.242Z,65.54
2023-04-27T06:49:01.788Z,64.73
2023-04-27T06:52:05.957Z,62.76
2023-04-27T06:55:09.016Z,63.12
2023-04-27T06:58:11.898Z,60.31
2023-04-27T07:01:14.621Z,61.14
2023-04-27T07:04:20.716Z,61.17
2023-04-27T07:07:23.719Z,57.97
2023-04-27T07:10:26.470Z,59.07
2023-04-27T07:13:30.284Z,56.77
2023-04-27T07:16:33.432Z,55.13
2023-04-27T07:19:37.322Z,56.59
2023-04-27T07:22:40.123Z,55.37
2023-04-27T07:25:43.677Z,57.22
2023-04-27T07:28:47.528Z,56.14
2023-04-27T07:31:52.184Z,56.68
2023-04-27T07:34:56.180Z,51.78
2023-04-27T07:38:02.999Z,50.01
2023-04-27T07:41:06.338Z,51.98
2023-04-27T07:44:12.556Z,50.59
2023-04-27T07:47:15.295Z,51.40
2023-04-27T07:50:22.366Z,49.96
2023-04-27T07:53:25.056Z,52.34
2023-04-27T07:56:28.309Z,49.51
2023-04-27T07:59:31.722Z,50.40
2023-04-27T08:02:34.973Z,52.57
2023-04-27T08:05:38.411Z,51.48
2023-04-27T08:08:41.645Z,45.86
2023-04-27T08:11:44.595Z,47.01
2023-04-27T08:14:50.093Z,45.94
2023-04-27T08:17:52.861Z,47.66
2023-04-27T08:20:55.996Z,45.75
2023-04-27T08:23:58.786Z,44.12
2023-04-27T08:27:07.076Z,44.42
2023-04-27T08:30:10.366Z,44.40
2023-04-27T08:33:13.545Z,45.60
2023-04-27T08:36:16.479Z,47.33
2023-04-27T08:39:20.103Z,44.97
2023-04-27T08:42:22.925Z,42.50
2023-04-27T08:45:26.304Z,42.96
2023-04-27T08:48:32.140Z,41.26
2023-04-27T08:51:35.606Z,42.44
2023-04-27T08:54:38.320Z,42.64
2023-04-27T08:57:53.949Z,42.93
2023-04-27T09:00:56.676Z,43.08
2023-04-27T09:04:02.080Z,43.16
2023-04-27T09:07:12.914Z,41.89
2023-04-27T09:10:16.505Z,40.54
2023-04-27T09:13:22.533Z,42.83
2023-04-27T09:16:28.451Z,43.09
2023-04-27T09:19:34.615Z,40.55
2023-04-27T09:22:48.694Z,40.70
2023-04-27T09:25:55.232Z,39.79
2023-04-27T09:28:58.008Z,40.26
2023-04-27T09:32:16.799Z,40.95
2023-04-27T09:35:30.059Z,38.87
2023-04-27T09:38:33.373Z,40.53
2023-04-27T09:41:36.773Z,41.71
2023-04-27T09:44:39.453Z,38.92
2023-04-27T09:47:42.418Z,37.57
2023-04-27T09:50:50.081Z,37.29
2023-04-27T09:53:54.744Z,36.77
2023-04-27T09:57:12.815Z,39.96
2023-04-27T10:00:46.561Z,40.66
2023-04-27T10:04:14.430Z,39.03
2023-04-27T10:07:20.223Z,39.92
2023-04-27T10:10:23.043Z,39.35
2023-04-27T10:13:31.913Z,37.07
2023-04-27T10:17:03.754Z,38.35
2023-04-27T10:20:07.745Z,35.12
2023-04-27T10:23:10.743Z,39.41
2023-04-27T10:26:13.381Z,36.94
2023-04-27T10:29:18.300Z,35.13
2023-04-27T10:32:26.462Z,36.20
2023-04-27T10:35:40.687Z,34.08
2023-04-27T10:38:43.499Z,36.63
2023-04-27T10:42:04.892Z,35.62
2023-04-27T10:45:08.413Z,34.96
2023-04-27T10:48:15.887Z,33.42
2023-04-27T10:51:18.704Z,36.29
2023-04-27T10:54:28.653Z,35.05
2023-04-27T10:57:34.642Z,35.60
2023-04-27T11:00:44.167Z,34.85
2023-04-27T11:03:59.109Z,35.36
2023-04-27T11:07:04.655Z,34.83
2023-04-27T11:10:08.680Z,32.80
2023-04-27T11:13:13.987Z,33.97
2023-04-27T11:16:17.134Z,32.59
2023-04-27T11:19:19.815Z,33.62
2023-04-27T11:22:22.436Z,33.14
2023-04-27T11:25:29.285Z,31.26
2023-04-27T11:28:32.312Z,30.24
2023-04-27T11:31:49.482Z,30.62
2023-04-27T11:34:54.398Z,32.26
2023-04-27T11:37:59.951Z,34.18
2023-04-27T11:41:06.841Z,34.59
2023-04-27T11:44:10.734Z,33.50
2023-04-27T11:47:19.330Z,32.08
2023-04-27T11:50:25.037Z,29.18
2023-04-27T11:53:32.930Z,32.04
2023-04-27T11:56:42.803Z,29.30
2023-04-27T11:59:45.759Z,29.72
2023-04-27T12:02:48.668Z,32.09
2023-04-27T12:05:54.590Z,32.87
2023-04-27T12:08:58.122Z,31.38
2023-04-27T12:12:01.022Z,29.27
2023-04-27T12:15:03.974Z,28.48
2023-04-27T12:18:07.143Z,29.79
2023-04-27T12:21:13.229Z,27.80
2023-04-27T12:24:16.461Z,28.75
2023-04-27T12:27:22.266Z,29.05
2023-04-27T12:30:25.042Z,28.66
2023-04-27T12:33:27.726Z,28.49
2023-04-27T12:36:30.397Z,29.65
2023-04-27T12:39:36.715Z,28.94
2023-04-27T12:42:42.873Z,28.56
2023-04-27T12:45:48.540Z,30.07
2023-04-27T12:48:54.174Z,28.59
2023-04-27T12:51:58.232Z,28.34
2023-04-27T12:55:02.304Z,28.61
2023-04-27T12:58:08.100Z,26.67
2023-04-27T13:01:15.242Z,28.63
2023-04-27T13:04:20.848Z,26.78
2023-04-27T13:07:24.203Z,25.26
2023-04-27T13:10:36.819Z,27.38
2023-04-27T13:13:42.473Z,27.44
2023-04-27T13:17:02.309Z,26.57
2023-04-27T13:20:07.495Z,25.58
2023-04-27T13:23:10.601Z,25.15
2023-04-27T13:26:13.807Z,26.43
2023-04-27T13:29:18.105Z,24.66
2023-04-27T13:32:21.191Z,26.59
2023-04-27T13:35:24.990Z,25.69
2023-04-27T13:38:27.830Z,25.38
2023-04-27T13:41:31.789Z,25.89
2023-04-27T13:44:34.592Z,26.31
2023-04-27T13:47:37.479Z,25.65
2023-04-27T13:50:40.130Z,24.79
2023-04-27T13:53:42.798Z,26.56
2023-04-27T13:56:45.860Z,26.68
2023-04-27T13:59:48.809Z,28.64
2023-04-27T14:02:51.667Z,29.66
2023-04-27T14:05:56.313Z,27.51
2023-04-27T14:08:58.997Z,28.32
2023-04-27T14:12:01.753Z,26.93
2023-04-27T14:15:05.296Z,26.08
2023-04-27T14:18:09.083Z,24.18
2023-04-27T14:21:11.906Z,24.61
2023-04-27T14:24:15.039Z,25.10
2023-04-27T14:27:18.015Z,26.80
2023-04-27T14:30:34.036Z,27.82
2023-04-27T14:33:36.802Z,27.95
2023-04-27T14:36:39.506Z,26.44
2023-04-27T14:39:45.009Z,25.49
2023-04-27T14:42:47.998Z,24.93
2023-04-27T14:45:55.511Z,25.07
2023-04-27T14:49:02.462Z,23.86
2023-04-27T14:52:06.773Z,25.32
2023-04-27T14:55:10.025Z,23.38
2023-04-27T14:58:12.783Z,26.54
2023-04-27T15:01:15.765Z,28.55
2023-04-27T15:04:18.933Z,27.11
2023-04-27T15:07:21.732Z,26.26
2023-04-27T15:10:24.584Z,25.52
2023-04-27T15:13:27.934Z,25.28
2023-04-27T15:16:30.813Z,24.94
2023-04-27T15:19:34.039Z,24.31
2023-04-27T15:22:37.226Z,24.40
2023-04-27T15:25:39.943Z,24.00
2023-04-27T15:28:42.840Z,23.71
2023-04-27T15:31:47.507Z,24.68
2023-04-27T15:34:50.293Z,24.62
2023-04-27T15:37:53.028Z,25.13
2023-04-27T15:40:55.891Z,25.17
2023-04-27T15:43:59.027Z,25.49
2023-04-27T15:47:02.280Z,24.87
2023-04-27T15:50:06.272Z,25.32
2023-04-27T15:53:09.100Z,25.39
2023-04-27T15:56:12.032Z,24.46
2023-04-27T15:59:14.994Z,24.86
2023-04-27T16:02:18.802Z,25.48
2023-04-27T16:05:21.718Z,25.94
2023-04-27T16:08:27.010Z,28.10
2023-04-27T16:11:32.744Z,28.88
2023-04-27T16:14:41.848Z,29.30
2023-04-27T16:17:44.742Z,28.33
2023-04-27T16:20:47.469Z,30.20
2023-04-27T16:23:50.290Z,30.49
2023-04-27T16:26:52.973Z,30.79
2023-04-27T16:29:56.578Z,31.16
2023-04-27T16:32:59.314Z,31.72
2023-04-27T16:36:02.005Z,32.20
2023-04-27T16:39:05.281Z,32.92
2023-04-27T16:42:08.341Z,32.99
2023-04-27T16:45:11.615Z,34.38
2023-04-27T16:48:14.346Z,33.94
2023-04-27T16:51:17.026Z,35.00
2023-04-27T16:54:21.154Z,34.09
2023-04-27T16:57:23.922Z,34.25
2023-04-27T17:00:27.661Z,33.79
2023-04-27T17:03:30.836Z,33.58
2023-04-27T17:06:34.968Z,33.44
2023-04-27T17:09:38.183Z,33.81
2023-04-27T17:12:41.062Z,33.68
2023-04-27T17:15:44.668Z,34.99
2023-04-27T17:18:48.167Z,35.43
2023-04-27T17:21:51.132Z,35.64
2023-04-27T17:24:54.475Z,36.82
2023-04-27T17:27:58.068Z,36.75
2023-04-27T17:31:02.282Z,37.47
2023-04-27T17:34:05.394Z,38.45
2023-04-27T17:37:08.680Z,41.55
2023-04-27T17:40:12.368Z,42.49
2023-04-27T17:43:15.361Z,43.46
2023-04-27T17:46:18.661Z,44.25
2023-04-27T17:49:22.750Z,45.36
2023-04-27T17:52:25.585Z,47.04
2023-04-27T17:55:33.974Z,49.33
2023-04-27T17:58:36.850Z,49.84
2023-04-27T18:01:40.031Z,51.42
2023-04-27T18:04:43.482Z,53.84
2023-04-27T18:07:46.795Z,53.26
2023-04-27T18:10:49.806Z,55.89
2023-04-27T18:13:54.639Z,55.48
2023-04-27T18:17:00.665Z,57.17
2023-04-27T18:20:09.352Z,58.60
2023-04-27T18:23:13.058Z,57.31
2023-04-27T18:26:17.207Z,57.78
2023-04-27T18:29:20.147Z,59.17
2023-04-27T18:32:23.386Z,59.87
2023-04-27T18:35:26.212Z,60.36
2023-04-27T18:38:29.491Z,61.59
2023-04-27T18:41:33.135Z,63.57
2023-04-27T18:44:36.718Z,63.48
2023-04-27T18:47:40.050Z,63.94
2023-04-27T18:50:42.999Z,65.59
2023-04-27T18:53:45.817Z,67.90
2023-04-27T18:56:53.047Z,66.63
2023-04-27T18:59:56.319Z,66.58
2023-04-27T19:02:59.482Z,69.12
2023-04-27T19:06:02.972Z,69.47
2023-04-27T19:09:05.761Z,69.77
2023-04-27T19:12:09.240Z,70.28
2023-04-27T19:15:14.670Z,71.18
2023-04-27T19:18:17.480Z,70.93
2023-04-27T19:21:20.327Z,70.29
2023-04-27T19:24:24.981Z,72.45
2023-04-27T19:27:28.260Z,72.25
2023-04-27T19:30:31.314Z,72.94
2023-04-27T19:33:34.169Z,72.43
2023-04-27T19:36:36.949Z,75.80
2023-04-27T19:39:39.864Z,74.80
2023-04-27T19:42:42.909Z,74.43
2023-04-27T19:45:45.956Z,74.97
2023-04-27T19:48:48.935Z,75.45
2023-04-27T19:51:51.689Z,76.73
2023-04-27T19:54:54.822Z,77.25
2023-04-27T19:57:57.759Z,76.73
2023-04-27T20:01:00.540Z,76.98
2023-04-27T20:04:03.461Z,78.38
2023-04-27T20:07:06.665Z,76.61
2023-04-27T20:10:09.395Z,77.00
2023-04-27T20:13:12.308Z,79.15
2023-04-27T20:16:15.360Z,79.15
2023-04-27T20:19:19.457Z,80.88
2023-04-27T20:22:22.931Z,79.77
2023-04-27T20:25:26.167Z,81.00
2023-04-27T20:28:30.491Z,81.21
2023-04-27T20:31:33.551Z,81.27
2023-04-27T20:34:36.334Z,81.15
2023-04-27T20:37:40.224Z,83.32
2023-04-27T20:40:42.970Z,84.02
2023-04-27T20:43:46.154Z,82.70
2023-04-27T20:46:49.201Z,83.67
2023-04-27T20:49:51.929Z,83.79
2023-04-27T20:52:54.604Z,84.09
2023-04-27T20:55:57.371Z,85.19
2023-04-27T20:59:00.210Z,85.44
2023-04-27T21:02:03.218Z,85.24
2023-04-27T21:05:06.332Z,84.24
2023-04-27T21:08:09.056Z,86.11
2023-04-27T21:11:12.250Z,87.25
2023-04-27T21:14:15.028Z,86.05
2023-04-27T21:17:18.042Z,85.87
2023-04-27T21:20:21.055Z,86.59
2023-04-27T21:23:23.839Z,87.84
2023-04-27T21:26:27.026Z,87.55
2023-04-27T21:29:34.932Z,87.36
2023-04-27T21:32:40.958Z,87.06
2023-04-27T21:35:43.769Z,87.16
2023-04-27T21:38:47.336Z,88.27
2023-04-27T21:41:51.508Z,89.33
2023-04-27T21:44:55.482Z,89.25
2023-04-27T21:48:01.301Z,88.62
2023-04-27T21:51:04.154Z,88.28
2023-04-27T21:54:07.244Z,88.37
2023-04-27T21:57:12.724Z,88.55
2023-04-27T22:00:18.345Z,90.75
2023-04-27T22:03:22.001Z,90.58
2023-04-27T22:06:25.783Z,89.64
2023-04-27T22:09:28.866Z,91.46
2023-04-27T22:12:31.652Z,91.29
2023-04-27T22:15:34.590Z,90.51
2023-04-27T22:18:37.429Z,91.00
2023-04-27T22:21:43.056Z,90.60
2023-04-27T22:24:46.094Z,91.18
2023-04-27T22:27:52.855Z,90.98
2023-04-27T22:30:56.015Z,93.11
2023-04-27T22:33:59.027Z,91.80
2023-04-27T22:37:02.570Z,91.68
2023-04-27T22:40:06.056Z,91.72
2023-04-27T22:43:08.685Z,92.08
2023-04-27T22:46:11.418Z,92.46
2023-04-27T22:49:15.358Z,92.13
2023-04-27T22:52:18.342Z,92.43
2023-04-27T22:55:21.381Z,92.44
2023-04-27T22:58:24.101Z,92.02
2023-04-27T23:01:26.781Z,91.71
2023-04-27T23:04:33.806Z,91.41
2023-04-27T23:07:37.352Z,92.37
2023-04-27T23:10:41.194Z,93.24
2023-04-27T23:13:44.712Z,92.76
2023-04-27T23:16:50.751Z,93.77
2023-04-27T23:19:53.401Z,93.09
2023-04-27T23:22:59.206Z,93.77
2023-04-27T23:26:02.617Z,95.36
2023-04-27T23:29:05.658Z,94.52
2023-04-27T23:32:08.850Z,93.09
2023-04-27T23:35:11.711Z,94.25
2023-04-27T23:38:14.509Z,93.77
2023-04-27T23:41:17.418Z,93.91
2023-04-27T23:44:20.360Z,93.70
2023-04-27T23:47:23.275Z,93.84
2023-04-27T23:50:26.167Z,93.91
2023-04-27T23:53:29.154Z,93.67
2023-04-27T23:56:32.051Z,94.06
2023-04-27T23:59:35.686Z,93.76
